Time;durP1;ratioP1;P1;durP2;ratioP2;P2;SDS_P1;SDS_P2;PMS_P1;PMS_P2;Temp;Humidity;BMP_temperature;BMP_pressure;BME280_temperature;BME280_humidity;BME280_pressure;Samples;Min_cycle;Max_cycle;Signal;HPM_P1;HPM_P2
2021/11/11 00:00:25;;;;;;;34.47;21.48;;;;;;;4.43;100.00;101639.72;5037213;28;20047;-70
2021/11/11 00:02:53;;;;;;;37.08;22.98;;;;;;;4.34;100.00;101650.28;5041206;28;20075;-69
2021/11/11 00:05:21;;;;;;;42.05;24.42;;;;;;;4.32;100.00;101644.22;5045130;28;20045;-68
2021/11/11 00:07:48;;;;;;;41.88;25.58;;;;;;;4.36;100.00;101650.25;5036917;28;20049;-68
2021/11/11 00:10:17;;;;;;;39.67;26.30;;;;;;;4.32;100.00;101654.66;5049102;28;20559;-69
2021/11/11 00:12:45;;;;;;;40.75;25.52;;;;;;;4.31;100.00;101660.75;5026905;28;20049;-68
2021/11/11 00:15:13;;;;;;;38.13;22.52;;;;;;;4.29;100.00;101663.41;5028831;28;20070;-69
2021/11/11 00:17:41;;;;;;;37.00;24.08;;;;;;;4.22;100.00;101660.91;5042934;28;20046;-69
2021/11/11 00:20:10;;;;;;;40.92;25.95;;;;;;;4.22;100.00;101640.91;5040777;28;20044;-69
2021/11/11 00:22:38;;;;;;;35.47;23.42;;;;;;;4.19;100.00;101646.19;5032127;28;20045;-69
2021/11/11 00:25:06;;;;;;;35.85;23.40;;;;;;;4.12;100.00;101646.31;5022839;28;20060;-69
2021/11/11 00:27:33;;;;;;;37.33;25.15;;;;;;;4.09;100.00;101635.94;5033931;28;20049;-69
2021/11/11 00:30:01;;;;;;;42.22;23.77;;;;;;;4.05;100.00;101646.41;5039465;28;20055;-69
2021/11/11 00:32:28;;;;;;;38.30;24.33;;;;;;;4.02;100.00;101646.47;5028777;28;20053;-69
2021/11/11 00:34:55;;;;;;;36.70;24.10;;;;;;;4.05;100.00;101653.34;5037182;28;20057;-68
2021/11/11 00:37:23;;;;;;;37.95;25.00;;;;;;;4.06;100.00;101640.31;5038775;28;20067;-68
2021/11/11 00:39:51;;;;;;;44.70;27.02;;;;;;;4.09;100.00;101636.78;5040960;28;20045;-69
2021/11/11 00:42:19;;;;;;;39.20;24.90;;;;;;;4.10;100.00;101646.34;5038044;28;20057;-69
2021/11/11 00:44:48;;;;;;;39.67;25.00;;;;;;;4.10;100.00;101648.06;5059346;23;20124;-62
2021/11/11 00:47:15;;;;;;;42.25;25.80;;;;;;;4.02;100.00;101648.22;5040342;28;20409;-62
2021/11/11 00:49:43;;;;;;;40.08;24.75;;;;;;;3.96;100.00;101653.50;5038152;28;20049;-62
2021/11/11 00:52:11;;;;;;;41.88;25.85;;;;;;;3.92;100.00;101652.69;5041652;28;20049;-63
2021/11/11 00:54:41;;;;;;;38.63;24.48;;;;;;;3.88;100.00;101645.81;5041527;28;20415;-61
2021/11/11 00:57:08;;;;;;;36.20;23.25;;;;;;;3.86;100.00;101649.31;5028767;28;20071;-62
2021/11/11 00:59:36;;;;;;;36.53;22.90;;;;;;;3.86;100.00;101652.78;5031414;28;20512;-62
2021/11/11 01:02:08;;;;;;;35.00;23.95;;;;;;;3.81;100.00;101636.34;5032033;28;20053;-62
2021/11/11 01:04:37;;;;;;;37.72;23.85;;;;;;;3.75;100.00;101639.06;5007540;28;20049;-62
2021/11/11 01:07:08;;;;;;;41.00;21.13;;;;;;;3.75;100.00;101636.47;5023855;28;20374;-62
2021/11/11 01:09:36;;;;;;;35.83;23.00;;;;;;;3.70;100.00;101627.84;5026950;28;20529;-62
2021/11/11 01:12:05;;;;;;;38.90;25.00;;;;;;;3.66;100.00;101631.38;5013029;28;20071;-62
2021/11/11 01:14:33;;;;;;;39.47;24.55;;;;;;;3.61;100.00;101628.84;5028571;28;20057;-62
2021/11/11 01:17:01;;;;;;;39.97;23.73;;;;;;;3.57;100.00;101618.50;5029632;28;20064;-62
2021/11/11 01:19:28;;;;;;;33.20;22.98;;;;;;;3.60;100.00;101623.63;5026465;28;20057;-61
2021/11/11 01:21:55;;;;;;;37.60;23.92;;;;;;;3.59;100.00;101624.53;5023954;28;20050;-61
2021/11/11 01:24:22;;;;;;;38.63;24.35;;;;;;;3.52;100.00;101624.63;5027646;28;20060;-60
2021/11/11 01:26:49;;;;;;;34.40;22.80;;;;;;;3.47;100.00;101618.63;5035822;28;20053;-60
2021/11/11 01:29:16;;;;;;;36.92;23.10;;;;;;;3.44;100.00;101623.00;5025863;28;20060;-62
2021/11/11 01:31:44;;;;;;;32.53;21.67;;;;;;;3.42;100.00;101617.81;5034393;28;20045;-60
2021/11/11 01:34:11;;;;;;;35.08;22.35;;;;;;;3.41;100.00;101617.81;5026005;28;20057;-62
2021/11/11 01:36:38;;;;;;;35.08;22.30;;;;;;;3.40;100.00;101622.19;5026725;28;20513;-61
2021/11/11 01:39:06;;;;;;;34.20;22.60;;;;;;;3.38;100.00;101617.84;5027212;28;20045;-62
2021/11/11 01:41:33;;;;;;;36.00;22.40;;;;;;;3.34;100.00;101617.06;5028078;28;20046;-62
2021/11/11 01:44:00;;;;;;;38.63;22.40;;;;;;;3.33;100.00;101614.47;5020215;28;20064;-60
2021/11/11 01:46:28;;;;;;;38.22;23.30;;;;;;;3.32;100.00;101604.94;5021887;28;20045;-62
2021/11/11 01:48:55;;;;;;;39.92;24.38;;;;;;;3.27;100.00;101599.78;5027451;28;20103;-62
2021/11/11 01:51:22;;;;;;;36.10;23.65;;;;;;;3.25;100.00;101601.56;5027328;28;20048;-61
2021/11/11 01:53:50;;;;;;;38.63;23.75;;;;;;;3.23;100.00;101593.75;5032199;28;20041;-60
2021/11/11 01:56:19;;;;;;;35.00;22.67;;;;;;;3.21;100.00;101592.94;5025667;28;20067;-63
2021/11/11 01:58:46;;;;;;;35.15;21.77;;;;;;;3.23;100.00;101592.91;5028133;28;20056;-62
2021/11/11 02:01:13;;;;;;;32.13;22.63;;;;;;;3.23;100.00;101600.72;5028590;28;20045;-61
2021/11/11 02:03:41;;;;;;;35.17;22.67;;;;;;;3.21;100.00;101595.53;5031486;28;20527;-61
2021/11/11 02:06:09;;;;;;;35.17;22.73;;;;;;;3.20;100.00;101588.63;5022010;28;20049;-61
2021/11/11 02:08:37;;;;;;;33.03;22.27;;;;;;;3.18;100.00;101594.72;5027622;28;20501;-62
2021/11/11 02:11:05;;;;;;;34.17;21.65;;;;;;;3.11;100.00;101599.16;5030394;28;20402;-62
2021/11/11 02:13:32;;;;;;;33.42;21.77;;;;;;;3.07;100.00;101601.81;5027414;28;20140;-62
2021/11/11 02:15:59;;;;;;;33.90;21.67;;;;;;;3.01;100.00;101590.56;5028599;28;20097;-62
2021/11/11 02:18:26;;;;;;;33.45;22.17;;;;;;;2.97;100.00;101581.09;5013975;28;20424;-62
2021/11/11 02:20:54;;;;;;;35.97;23.85;;;;;;;2.99;100.00;101578.47;5028942;28;20061;-63
2021/11/11 02:23:21;;;;;;;30.95;21.73;;;;;;;3.00;100.00;101578.44;5024585;28;20053;-63
2021/11/11 02:25:48;;;;;;;35.42;22.67;;;;;;;3.00;100.00;101585.41;5026685;28;20049;-63
2021/11/11 02:28:18;;;;;;;32.35;22.45;;;;;;;2.99;100.00;101589.75;5028667;28;20045;-62
2021/11/11 02:30:48;;;;;;;34.75;22.35;;;;;;;2.93;100.00;101579.41;5029819;28;20063;-62
2021/11/11 02:33:18;;;;;;;36.42;23.45;;;;;;;2.86;100.00;101577.75;5030478;28;20064;-61
2021/11/11 02:35:46;;;;;;;36.67;22.88;;;;;;;2.83;100.00;101569.97;5011702;28;20056;-61
2021/11/11 02:38:14;;;;;;;34.08;23.33;;;;;;;2.85;100.00;101576.03;5027094;28;20046;-62
2021/11/11 02:40:42;;;;;;;35.90;23.58;;;;;;;2.79;100.00;101576.09;5034792;28;20132;-60
2021/11/11 02:43:11;;;;;;;32.97;21.92;;;;;;;2.74;100.00;101568.34;5031275;28;20063;-61
2021/11/11 02:45:43;;;;;;;35.80;22.88;;;;;;;2.73;100.00;101553.63;5026169;28;20045;-61
2021/11/11 02:48:12;;;;;;;35.97;22.85;;;;;;;2.73;100.00;101561.44;5028962;28;20402;-60
2021/11/11 02:50:40;;;;;;;32.92;22.55;;;;;;;2.72;100.00;101562.31;5022801;28;20525;-61
2021/11/11 02:53:08;;;;;;;39.15;23.00;;;;;;;2.71;100.00;101560.59;5029523;28;20056;-61
2021/11/11 02:55:36;;;;;;;35.50;24.17;;;;;;;2.66;100.00;101556.34;5022176;28;21768;-61
2021/11/11 02:58:04;;;;;;;37.72;23.52;;;;;;;2.62;100.00;101546.84;5017270;28;20060;-62
2021/11/11 03:00:48;;;;;;;34.10;22.45;;;;;;;2.64;100.00;101556.34;5020667;28;20041;-60
2021/11/11 03:03:15;;;;;;;36.10;23.75;;;;;;;2.66;100.00;101551.16;5029399;28;20048;-62
2021/11/11 03:05:42;;;;;;;35.60;22.83;;;;;;;2.59;100.00;101552.09;5012711;28;20058;-62
2021/11/11 03:08:11;;;;;;;36.13;23.13;;;;;;;2.50;100.00;101551.31;5013293;28;20076;-62
2021/11/11 03:10:40;;;;;;;36.70;23.33;;;;;;;2.46;100.00;101554.81;5027970;28;20061;-63
2021/11/11 03:13:08;;;;;;;37.30;23.23;;;;;;;2.46;100.00;101554.81;5031859;28;20077;-62
2021/11/11 03:15:37;;;;;;;36.63;23.00;;;;;;;2.44;100.00;101555.72;5033575;28;20056;-62
2021/11/11 03:18:04;;;;;;;34.00;21.90;;;;;;;2.44;100.00;101559.16;5029895;28;20111;-62
2021/11/11 03:20:32;;;;;;;36.05;23.20;;;;;;;2.38;100.00;101561.81;5025700;28;20046;-63
2021/11/11 03:23:00;;;;;;;31.25;22.85;;;;;;;2.28;100.00;101566.25;5025114;28;20128;-62
2021/11/11 03:25:29;;;;;;;35.72;22.85;;;;;;;2.22;100.00;101574.09;5029202;28;20052;-62
2021/11/11 03:27:57;;;;;;;33.95;21.88;;;;;;;2.22;100.00;101565.47;5042794;28;20094;-62
2021/11/11 03:30:25;;;;;;;40.75;22.83;;;;;;;2.20;100.00;101578.44;5022929;28;20113;-62
2021/11/11 03:32:55;;;;;;;37.92;23.65;;;;;;;2.20;100.00;101586.22;5030942;28;20103;-62
2021/11/11 03:35:22;;;;;;;30.95;21.80;;;;;;;2.22;100.00;101594.88;5030212;28;20057;-62
2021/11/11 03:37:51;;;;;;;34.42;22.75;;;;;;;2.25;100.00;101593.97;5030163;28;20069;-61
2021/11/11 03:40:23;;;;;;;37.13;23.20;;;;;;;2.18;100.00;101587.13;5029770;28;20057;-61
2021/11/11 03:42:52;;;;;;;39.97;23.45;;;;;;;2.17;100.00;101582.81;5007282;28;20044;-62
2021/11/11 03:45:20;;;;;;;35.60;23.80;;;;;;;2.16;100.00;101574.19;5023187;28;20049;-62
2021/11/11 03:47:48;;;;;;;39.05;23.15;;;;;;;2.17;100.00;101570.69;5023177;28;20053;-62
2021/11/11 03:50:16;;;;;;;37.65;23.23;;;;;;;2.21;100.00;101584.53;5022706;28;20128;-62
2021/11/11 03:52:44;;;;;;;36.05;24.48;;;;;;;2.18;100.00;101590.59;5032951;28;20064;-62
2021/11/11 03:55:12;;;;;;;34.25;24.55;;;;;;;2.15;100.00;101587.16;5028779;28;20071;-61
2021/11/11 03:57:40;;;;;;;35.42;22.00;;;;;;;2.15;100.00;101582.81;5028918;28;20055;-62
2021/11/11 04:00:11;;;;;;;35.15;21.42;;;;;;;2.12;100.00;101574.22;5026966;28;20052;-62
2021/11/11 04:02:38;;;;;;;35.63;23.20;;;;;;;2.14;100.00;101575.06;5035229;28;20053;-62
2021/11/11 04:05:05;;;;;;;41.75;24.33;;;;;;;2.13;100.00;101570.75;5025917;28;20058;-61
2021/11/11 04:07:32;;;;;;;38.40;23.05;;;;;;;2.15;100.00;101574.16;5035301;28;20049;-65
2021/11/11 04:10:00;;;;;;;33.33;22.77;;;;;;;2.17;100.00;101569.84;5023495;28;20064;-60
2021/11/11 04:12:27;;;;;;;35.70;22.75;;;;;;;2.09;100.00;101567.31;5013859;28;20045;-62
2021/11/11 04:14:54;;;;;;;33.60;21.98;;;;;;;2.06;100.00;101572.50;5027873;28;20057;-62
2021/11/11 04:17:21;;;;;;;33.42;21.63;;;;;;;2.06;100.00;101577.72;5032865;28;20137;-62
2021/11/11 04:19:48;;;;;;;31.38;21.30;;;;;;;2.00;100.00;101578.63;5023204;28;20422;-61
2021/11/11 04:22:15;;;;;;;35.83;22.45;;;;;;;1.97;100.00;101570.84;5026183;28;20053;-62
2021/11/11 04:24:44;;;;;;;33.08;22.27;;;;;;;1.98;100.00;101580.38;5031092;28;20147;-62
2021/11/11 04:27:23;;;;;;;32.30;22.33;;;;;;;2.01;100.00;101577.75;5025999;28;20401;-62
2021/11/11 04:30:05;;;;;;;35.22;22.90;;;;;;;1.98;100.00;101576.91;5020046;28;20059;-63
2021/11/11 04:32:32;;;;;;;36.38;23.27;;;;;;;1.95;100.00;101583.00;5030565;28;20069;-62
2021/11/11 04:35:00;;;;;;;34.45;21.92;;;;;;;1.93;100.00;101583.88;5020074;28;20052;-63
2021/11/11 04:37:30;;;;;;;35.20;22.20;;;;;;;1.96;100.00;101579.53;5027024;28;20053;-61
2021/11/11 04:40:27;;;;;;;33.65;22.00;;;;;;;1.92;100.00;101582.16;5011819;28;20083;-62
2021/11/11 04:43:16;;;;;;;32.03;21.75;;;;;;;1.89;100.00;101562.28;5020632;28;20085;-63
2021/11/11 04:46:00;;;;;;;33.83;21.48;;;;;;;1.87;100.00;101565.75;5015989;28;20054;-62
2021/11/11 04:51:24;;;;;;;39.17;23.60;;;;;;;1.82;100.00;101567.53;5031249;28;20551;-63
2021/11/11 04:59:58;;;;;;;35.63;23.60;;;;;;;1.78;100.00;101562.34;5024922;28;20064;-61
2021/11/11 05:02:49;;;;;;;36.35;22.80;;;;;;;1.72;100.00;101565.00;5022941;28;20052;-60
2021/11/11 05:05:17;;;;;;;33.55;22.67;;;;;;;1.69;100.00;101562.41;5019199;28;20060;-61
2021/11/11 05:07:45;;;;;;;36.92;21.92;;;;;;;1.69;100.00;101558.97;5030624;28;20060;-61
2021/11/11 05:10:14;;;;;;;32.17;21.42;;;;;;;1.69;100.00;101556.38;5025029;28;20718;-62
2021/11/11 05:12:41;;;;;;;30.33;21.05;;;;;;;1.69;100.00;101562.41;5004909;28;20041;-63
2021/11/11 05:15:08;;;;;;;32.55;22.00;;;;;;;1.68;100.00;101568.50;5020779;28;20061;-62
2021/11/11 05:17:36;;;;;;;37.67;23.52;;;;;;;1.68;100.00;101565.91;5022551;28;20045;-63
2021/11/11 05:20:03;;;;;;;35.40;23.00;;;;;;;1.68;100.00;101565.03;5020053;28;20061;-63
2021/11/11 05:22:30;;;;;;;34.40;22.55;;;;;;;1.67;100.00;101568.53;5024251;28;20067;-61
2021/11/11 05:24:58;;;;;;;36.10;22.02;;;;;;;1.67;100.00;101568.53;5020369;28;20051;-61
2021/11/11 05:27:26;;;;;;;35.03;21.73;;;;;;;1.65;100.00;101573.69;5026139;28;20513;-61
2021/11/11 05:29:54;;;;;;;35.25;24.48;;;;;;;1.69;100.00;101570.22;5023190;28;20065;-62
2021/11/11 05:32:21;;;;;;;35.45;23.13;;;;;;;1.69;100.00;101571.94;5025588;28;20060;-61
2021/11/11 05:34:48;;;;;;;36.80;22.60;;;;;;;1.70;100.00;101573.66;5026507;28;20080;-64
2021/11/11 05:37:17;;;;;;;39.00;24.35;;;;;;;1.67;100.00;101574.56;5011009;28;20064;-59
2021/11/11 05:39:44;;;;;;;34.95;22.45;;;;;;;1.66;100.00;101574.56;5025096;28;20049;-61
2021/11/11 05:42:11;;;;;;;37.17;23.38;;;;;;;1.63;100.00;101577.19;5028566;28;20232;-63
2021/11/11 05:44:38;;;;;;;41.60;23.40;;;;;;;1.59;100.00;101571.16;5023034;28;20053;-62
2021/11/11 05:47:06;;;;;;;39.70;23.60;;;;;;;1.60;100.00;101572.00;5020552;28;20053;-61
2021/11/11 05:49:33;;;;;;;35.33;23.35;;;;;;;1.58;100.00;101571.19;5024521;28;20061;-62
2021/11/11 05:52:00;;;;;;;39.30;22.38;;;;;;;1.60;100.00;101578.06;5029894;28;20053;-61
2021/11/11 05:54:27;;;;;;;31.75;23.02;;;;;;;1.59;100.00;101575.50;5025028;28;20049;-62
2021/11/11 05:56:54;;;;;;;37.50;22.98;;;;;;;1.59;100.00;101575.50;5026121;28;20057;-62
2021/11/11 05:59:22;;;;;;;37.63;24.30;;;;;;;1.57;100.00;101578.06;5028302;28;20057;-61
2021/11/11 06:01:49;;;;;;;37.10;22.75;;;;;;;1.61;100.00;101582.38;5031482;28;20052;-61
2021/11/11 06:04:16;;;;;;;35.60;22.55;;;;;;;1.62;100.00;101585.81;5023556;28;20042;-61
2021/11/11 06:06:44;;;;;;;34.42;22.65;;;;;;;1.61;100.00;101591.91;5031286;28;20049;-62
2021/11/11 06:09:11;;;;;;;31.17;23.08;;;;;;;1.64;100.00;101589.28;5027697;28;20128;-61
2021/11/11 06:11:38;;;;;;;35.55;23.15;;;;;;;1.62;100.00;101586.72;5029918;28;20051;-63
2021/11/11 06:14:05;;;;;;;35.42;23.13;;;;;;;1.63;100.00;101590.16;5024187;28;20390;-60
2021/11/11 06:16:32;;;;;;;32.28;22.58;;;;;;;1.65;100.00;101586.69;5034617;28;20628;-62
2021/11/11 06:18:59;;;;;;;38.25;22.92;;;;;;;1.66;100.00;101590.13;5016334;28;20057;-62
2021/11/11 06:21:26;;;;;;;37.63;22.75;;;;;;;1.64;100.00;101584.97;5019016;28;20136;-62
2021/11/11 06:23:54;;;;;;;36.45;22.08;;;;;;;1.67;100.00;101589.28;5027028;28;20046;-63
2021/11/11 06:26:26;;;;;;;33.88;22.83;;;;;;;1.71;100.00;101601.34;5028618;28;20063;-62
2021/11/11 06:28:53;;;;;;;36.88;22.95;;;;;;;1.71;100.00;101602.22;5028561;28;20045;-62
2021/11/11 06:31:20;;;;;;;35.65;22.30;;;;;;;1.72;100.00;101610.88;5022479;28;20057;-62
2021/11/11 06:33:47;;;;;;;37.08;22.75;;;;;;;1.77;100.00;101607.38;5026034;28;20084;-62
2021/11/11 06:36:15;;;;;;;33.40;21.17;;;;;;;1.81;100.00;101613.41;5025559;28;20354;-62
2021/11/11 06:38:42;;;;;;;37.78;24.52;;;;;;;1.87;100.00;101612.50;4999769;28;20060;-61
2021/11/11 06:41:09;;;;;;;36.88;23.35;;;;;;;1.93;100.00;101617.63;5026965;28;20053;-61
2021/11/11 06:43:37;;;;;;;36.28;23.80;;;;;;;1.98;100.00;101615.84;5026707;28;20063;-62
2021/11/11 06:46:05;;;;;;;32.92;22.05;;;;;;;2.02;100.00;101623.63;5052966;23;20053;-68
2021/11/11 06:48:33;;;;;;;40.42;23.83;;;;;;;2.08;100.00;101622.72;5023986;28;20063;-69
2021/11/11 06:51:00;;;;;;;35.42;22.08;;;;;;;2.12;100.00;101618.38;5022803;28;20045;-69
2021/11/11 06:53:27;;;;;;;36.33;23.83;;;;;;;2.14;100.00;101621.81;5019523;28;20050;-69
2021/11/11 06:55:54;;;;;;;36.08;23.25;;;;;;;2.15;100.00;101626.13;5019472;28;20049;-69
2021/11/11 06:58:23;;;;;;;38.05;21.67;;;;;;;2.17;100.00;101625.25;5018383;28;20466;-68
2021/11/11 07:00:52;;;;;;;35.80;22.75;;;;;;;2.22;100.00;101626.06;5025099;28;20480;-70
2021/11/11 07:03:19;;;;;;;32.75;22.85;;;;;;;2.28;100.00;101625.16;5018891;28;20072;-70
2021/11/11 07:05:47;;;;;;;34.20;22.60;;;;;;;2.27;100.00;101624.28;5004503;28;20045;-69
2021/11/11 07:08:15;;;;;;;34.63;23.10;;;;;;;2.27;100.00;101620.84;5019847;28;20045;-70
2021/11/11 07:10:45;;;;;;;35.72;22.80;;;;;;;2.29;100.00;101617.31;5022454;28;20049;-70
2021/11/11 07:13:12;;;;;;;35.53;22.55;;;;;;;2.39;100.00;101615.53;5022447;28;20081;-69
2021/11/11 07:15:40;;;;;;;35.53;22.05;;;;;;;2.43;100.00;101609.44;5005398;28;20049;-68
2021/11/11 07:18:11;;;;;;;33.17;22.20;;;;;;;2.47;100.00;101612.84;5021057;28;20068;-70
2021/11/11 07:20:43;;;;;;;39.05;23.42;;;;;;;2.54;100.00;101607.56;5001020;28;20091;-67
2021/11/11 07:23:12;;;;;;;38.50;23.88;;;;;;;2.59;100.00;101612.72;5020821;28;20049;-69
2021/11/11 07:25:39;;;;;;;35.65;23.77;;;;;;;2.67;100.00;101613.50;5020680;28;20046;-68
2021/11/11 07:28:06;;;;;;;38.88;23.02;;;;;;;2.79;100.00;101615.09;5021603;28;20059;-69
2021/11/11 07:30:34;;;;;;;36.80;24.35;;;;;;;2.83;100.00;101615.94;5028651;28;20555;-69
2021/11/11 07:33:01;;;;;;;37.88;23.58;;;;;;;2.92;100.00;101614.09;5024533;28;20049;-68
2021/11/11 07:35:29;;;;;;;36.38;22.67;;;;;;;2.97;100.00;101614.03;5023506;28;20624;-69
2021/11/11 07:37:56;;;;;;;46.22;23.73;;;;;;;2.97;100.00;101614.03;5028582;28;20132;-69
2021/11/11 07:40:25;;;;;;;35.63;24.30;;;;;;;3.10;100.00;101618.22;5019042;28;20092;-69
2021/11/11 07:42:53;;;;;;;33.55;23.25;;;;;;;3.16;100.00;101617.31;5027634;28;20046;-70
2021/11/11 07:45:28;;;;;;;35.38;21.95;;;;;;;3.20;100.00;101616.38;5022045;28;20045;-66
2021/11/11 07:47:58;;;;;;;34.88;22.85;;;;;;;3.29;100.00;101616.25;5024075;28;20096;-66
2021/11/11 07:50:34;;;;;;;34.45;22.75;;;;;;;3.31;100.00;101617.09;5024724;28;20049;-69
2021/11/11 07:53:03;;;;;;;37.47;23.40;;;;;;;3.44;100.00;101617.78;5024839;28;20142;-67
2021/11/11 07:55:30;;;;;;;35.78;23.80;;;;;;;3.57;100.00;101615.88;5027464;28;20519;-68
2021/11/11 07:57:58;;;;;;;38.75;25.05;;;;;;;3.65;100.00;101616.63;5027724;28;20056;-69
2021/11/11 08:00:25;;;;;;;38.28;24.83;;;;;;;3.78;100.00;101624.25;5024086;28;20056;-68
2021/11/11 08:02:52;;;;;;;34.60;22.92;;;;;;;3.91;100.00;101626.66;5014641;28;20064;-68
2021/11/11 08:05:20;;;;;;;38.80;24.48;;;;;;;3.89;100.00;101621.47;5020518;28;20117;-69
2021/11/11 08:07:48;;;;;;;40.75;24.38;;;;;;;4.06;100.00;101619.47;5031453;28;20068;-70
2021/11/11 08:10:17;;;;;;;37.03;23.45;;;;;;;4.18;100.00;101614.94;5024816;28;20069;-67
2021/11/11 08:12:44;;;;;;;39.95;24.02;;;;;;;4.30;100.00;101612.13;5027866;28;21247;-69
2021/11/11 08:15:13;;;;;;;36.75;24.92;;;;;;;4.40;100.00;101608.47;5028852;28;20421;-69
2021/11/11 08:17:40;;;;;;;45.70;24.20;;;;;;;4.53;100.00;101602.13;5017675;28;20063;-68
2021/11/11 08:20:08;;;;;;;39.60;24.63;;;;;;;4.69;100.00;101604.50;5022904;28;21109;-70
2021/11/11 08:22:36;;;;;;;44.05;24.02;;;;;;;4.82;100.00;101606.81;5034432;28;20057;-70
2021/11/11 08:25:06;;;;;;;37.80;23.00;;;;;;;4.88;100.00;101602.38;5029025;28;20552;-70
2021/11/11 08:27:34;;;;;;;37.70;22.88;;;;;;;5.08;100.00;101592.38;5022625;28;20049;-70
2021/11/11 08:30:04;;;;;;;33.05;19.75;;;;;;;5.30;100.00;101593.63;5020040;28;20058;-70
2021/11/11 08:32:32;;;;;;;37.72;22.27;;;;;;;5.36;99.51;101592.69;5021661;28;20092;-70
2021/11/11 08:34:59;;;;;;;32.05;21.38;;;;;;;5.54;98.56;101592.25;5025462;28;20085;-67
2021/11/11 08:37:26;;;;;;;34.15;21.50;;;;;;;5.60;98.05;101593.88;5022456;28;20416;-68
2021/11/11 08:39:53;;;;;;;31.63;21.55;;;;;;;5.68;97.76;101591.94;5019379;28;20053;-69
2021/11/11 08:42:21;;;;;;;33.47;20.98;;;;;;;5.84;96.45;101589.81;5021034;28;20132;-67
2021/11/11 08:44:48;;;;;;;34.53;21.88;;;;;;;5.98;96.15;101594.75;5027273;28;20068;-69
2021/11/11 08:47:17;;;;;;;32.65;21.63;;;;;;;6.18;94.76;101605.59;5028177;28;20168;-66
2021/11/11 08:49:45;;;;;;;47.90;22.10;;;;;;;6.30;93.17;101609.63;5020955;28;20500;-69
2021/11/11 08:52:14;;;;;;;31.92;21.17;;;;;;;6.37;93.05;101624.28;5027611;28;20128;-70
2021/11/11 08:54:42;;;;;;;32.75;21.92;;;;;;;6.51;92.37;101622.16;5004976;28;20048;-68
2021/11/11 08:57:10;;;;;;;33.40;21.00;;;;;;;6.45;93.36;101608.41;5018593;28;20409;-69
2021/11/11 08:59:51;;;;;;;35.30;21.17;;;;;;;6.57;92.69;101603.69;5020517;28;20049;-68
2021/11/11 09:02:19;;;;;;;38.08;22.88;;;;;;;6.87;91.56;101602.91;5025013;28;20046;-69
2021/11/11 09:04:48;;;;;;;35.83;21.40;;;;;;;6.95;89.94;101607.00;5023380;28;20053;-68
2021/11/11 09:07:16;;;;;;;32.72;21.55;;;;;;;6.88;89.34;101610.69;5025408;28;20745;-69
2021/11/11 09:09:44;;;;;;;39.25;21.73;;;;;;;6.94;89.75;101615.78;5007548;28;20060;-69
2021/11/11 09:12:11;;;;;;;34.55;21.70;;;;;;;7.10;89.51;101624.91;5008900;28;20053;-69
2021/11/11 09:14:38;;;;;;;38.72;20.38;;;;;;;7.09;89.43;101617.94;5020797;28;20045;-69
2021/11/11 09:17:07;;;;;;;32.20;21.92;;;;;;;7.17;89.62;101620.34;5023649;28;20092;-69
2021/11/11 09:19:34;;;;;;;48.17;24.42;;;;;;;7.39;88.48;101622.34;5019699;28;20421;-70
2021/11/11 09:22:02;;;;;;;38.20;20.42;;;;;;;7.74;90.12;101616.00;5010495;28;20080;-70
2021/11/11 09:24:29;;;;;;;37.08;21.00;;;;;;;7.98;87.04;101619.66;5025602;28;20069;-71
2021/11/11 09:26:57;;;;;;;35.83;20.80;;;;;;;8.15;86.98;101619.97;5012725;28;20046;-70
2021/11/11 09:29:25;;;;;;;31.38;19.70;;;;;;;8.16;85.73;101616.41;5021181;28;20049;-68
2021/11/11 09:31:52;;;;;;;36.90;21.15;;;;;;;8.24;86.37;101627.53;5003722;28;20081;-70
2021/11/11 09:34:20;;;;;;;32.55;20.65;;;;;;;8.31;84.31;101615.91;5016612;28;20067;-70
2021/11/11 09:36:47;;;;;;;27.95;19.10;;;;;;;8.28;84.76;101618.63;5007529;28;20053;-69
2021/11/11 09:39:14;;;;;;;31.45;18.45;;;;;;;8.40;85.64;101601.66;5026854;28;20041;-68
2021/11/11 09:41:42;;;;;;;31.20;19.92;;;;;;;8.68;84.65;101601.53;5029398;28;20569;-69
2021/11/11 09:44:09;;;;;;;35.25;18.85;;;;;;;8.76;83.29;101609.16;5024339;28;20069;-69
2021/11/11 09:46:36;;;;;;;30.45;19.13;;;;;;;8.68;82.84;101614.66;5002069;28;20044;-69
2021/11/11 09:49:05;;;;;;;32.75;18.15;;;;;;;8.46;84.13;101621.56;4998775;28;20094;-68
2021/11/11 09:51:32;;;;;;;30.95;19.02;;;;;;;8.44;85.19;101624.25;5025416;28;20080;-70
2021/11/11 09:54:21;;;;;;;32.25;18.77;;;;;;;8.77;84.86;101616.09;5020832;28;20413;-70
2021/11/11 09:59:37;;;;;;;27.10;18.13;;;;;;;8.26;84.21;101623.06;5021065;28;20548;-71
2021/11/11 10:02:06;;;;;;;27.60;18.02;;;;;;;8.49;84.19;101629.34;5009094;28;20174;-69
2021/11/11 10:04:33;;;;;;;30.90;18.27;;;;;;;8.67;83.58;101620.81;5021092;28;20140;-69
2021/11/11 10:07:01;;;;;;;27.38;18.05;;;;;;;8.75;82.73;101617.94;5023908;28;20148;-70
2021/11/11 10:09:29;;;;;;;30.48;18.38;;;;;;;8.95;81.86;101618.06;5022983;28;20049;-69
2021/11/11 10:11:59;;;;;;;25.98;16.73;;;;;;;9.17;80.62;101605.00;5020399;28;20054;-70
2021/11/11 10:14:35;;;;;;;25.40;17.05;;;;;;;9.20;81.94;101609.31;5001302;28;20049;-72
2021/11/11 10:17:05;;;;;;;30.65;17.38;;;;;;;9.23;81.17;101606.53;5011349;28;20091;-70
2021/11/11 10:19:36;;;;;;;25.45;16.58;;;;;;;9.47;80.63;101604.78;5021799;28;20520;-71
2021/11/11 10:22:16;;;;;;;27.10;17.83;;;;;;;9.58;80.13;101608.66;5025916;28;20623;-68
2021/11/11 10:24:51;;;;;;;28.17;16.95;;;;;;;9.79;79.78;101601.72;5022576;28;20052;-70
2021/11/11 10:27:31;;;;;;;26.45;18.10;;;;;;;10.02;78.61;101613.94;5023314;28;20049;-68
2021/11/11 10:30:02;;;;;;;29.35;17.63;;;;;;;10.13;78.29;101621.38;5020357;28;20521;-69
2021/11/11 10:32:38;;;;;;;37.53;18.27;;;;;;;10.17;78.14;101622.97;5023718;28;20103;-70
2021/11/11 10:35:13;;;;;;;25.15;15.82;;;;;;;10.18;78.05;101623.81;5022112;28;20499;-70
2021/11/11 10:37:49;;;;;;;27.97;18.07;;;;;;;10.02;77.06;101615.72;5023884;28;20517;-69
2021/11/11 10:40:21;;;;;;;30.98;18.15;;;;;;;9.73;79.36;101609.00;5023653;28;20061;-67
2021/11/11 10:42:50;;;;;;;29.77;18.92;;;;;;;9.69;79.00;101602.16;5018629;28;20057;-70
2021/11/11 10:45:22;;;;;;;30.98;18.50;;;;;;;9.90;79.26;101598.66;5023925;28;20065;-69
2021/11/11 10:47:52;;;;;;;31.23;19.15;;;;;;;10.24;78.04;101597.28;5025818;28;20056;-69
2021/11/11 10:50:24;;;;;;;31.42;19.52;;;;;;;10.71;75.87;101592.63;5023974;28;20046;-68
2021/11/11 10:52:54;;;;;;;33.53;19.77;;;;;;;11.06;74.92;101579.66;5006917;28;20041;-70
2021/11/11 10:55:30;;;;;;;29.33;20.45;;;;;;;11.27;72.96;101580.47;5015686;28;20124;-70
2021/11/11 10:58:21;;;;;;;31.80;19.80;;;;;;;11.74;71.60;101566.78;5027031;28;20056;-70
2021/11/11 11:01:05;;;;;;;33.60;20.45;;;;;;;11.99;70.00;101561.19;5022824;28;20058;-70
2021/11/11 11:03:36;;;;;;;33.25;19.42;;;;;;;12.50;68.15;101552.38;5024697;28;20057;-71
2021/11/11 11:06:05;;;;;;;29.27;19.38;;;;;;;12.88;65.90;101563.59;5010489;28;20048;-68
2021/11/11 11:08:54;;;;;;;34.03;20.73;;;;;;;13.27;64.01;101556.22;5012866;28;20127;-69
2021/11/11 11:11:28;;;;;;;27.77;18.40;;;;;;;13.55;61.77;101556.38;5012556;28;20048;-68
2021/11/11 11:14:00;;;;;;;28.33;17.30;;;;;;;13.12;60.44;101557.91;5029258;28;20065;-70
2021/11/11 11:16:32;;;;;;;34.88;18.27;;;;;;;13.16;61.39;101549.72;5025307;28;20136;-70
2021/11/11 11:19:13;;;;;;;28.42;17.70;;;;;;;13.02;60.59;101554.06;5022894;28;20080;-71
2021/11/11 11:21:47;;;;;;;25.17;18.13;;;;;;;12.92;60.75;101543.09;5003121;28;20061;-70
2021/11/11 11:24:20;;;;;;;27.58;18.60;;;;;;;13.01;60.62;101541.75;5027599;28;20620;-65
2021/11/11 11:26:57;;;;;;;26.63;18.42;;;;;;;13.18;60.08;101544.34;5027192;28;20041;-69
2021/11/11 11:29:35;;;;;;;29.65;17.23;;;;;;;13.27;59.83;101553.59;5003296;28;20049;-68
2021/11/11 11:32:18;;;;;;;29.88;17.50;;;;;;;12.87;60.08;101546.00;5025486;28;20114;-69